sensor_id;sensor_type;location;lat;lon;timestamp;P1;durP1;ratioP1;P2;durP2;ratioP2
16466;SDS011;8344;47.560;9.710;2023-06-10T00:02:25;0.25;;;0.25;;
16466;SDS011;8344;47.560;9.710;2023-06-10T00:04:51;0.30;;;0.30;;
16466;SDS011;8344;47.560;9.710;2023-06-10T00:07:17;0.22;;;0.22;;
16466;SDS011;8344;47.560;9.710;2023-06-10T00:09:42;0.25;;;0.25;;
16466;SDS011;8344;47.560;9.710;2023-06-10T00:12:08;0.30;;;0.30;;
16466;SDS011;8344;47.560;9.710;2023-06-10T00:14:37;0.30;;;0.30;;
16466;SDS011;8344;47.560;9.710;2023-06-10T00:17:03;0.20;;;0.20;;
16466;SDS011;8344;47.560;9.710;2023-06-10T00:19:29;0.20;;;0.20;;
16466;SDS011;8344;47.560;9.710;2023-06-10T00:21:55;0.20;;;0.20;;
16466;SDS011;8344;47.560;9.710;2023-06-10T00:24:21;0.20;;;0.20;;
16466;SDS011;8344;47.560;9.710;2023-06-10T00:26:47;0.30;;;0.30;;
16466;SDS011;8344;47.560;9.710;2023-06-10T00:29:12;0.10;;;0.10;;
16466;SDS011;8344;47.560;9.710;2023-06-10T00:31:38;0.20;;;0.20;;
16466;SDS011;8344;47.560;9.710;2023-06-10T00:34:04;0.20;;;0.20;;
16466;SDS011;8344;47.560;9.710;2023-06-10T00:36:29;0.25;;;0.25;;
16466;SDS011;8344;47.560;9.710;2023-06-10T00:38:55;0.20;;;0.20;;
16466;SDS011;8344;47.560;9.710;2023-06-10T00:41:20;0.28;;;0.28;;
16466;SDS011;8344;47.560;9.710;2023-06-10T00:43:46;0.20;;;0.20;;
16466;SDS011;8344;47.560;9.710;2023-06-10T00:46:11;0.20;;;0.20;;
16466;SDS011;8344;47.560;9.710;2023-06-10T00:48:37;0.28;;;0.28;;
16466;SDS011;8344;47.560;9.710;2023-06-10T00:51:07;0.20;;;0.20;;
16466;SDS011;8344;47.560;9.710;2023-06-10T00:53:34;0.30;;;0.30;;
16466;SDS011;8344;47.560;9.710;2023-06-10T00:55:59;0.20;;;0.20;;
16466;SDS011;8344;47.560;9.710;2023-06-10T00:58:25;0.20;;;0.20;;
16466;SDS011;8344;47.560;9.710;2023-06-10T01:00:51;0.20;;;0.20;;
16466;SDS011;8344;47.560;9.710;2023-06-10T01:03:17;0.20;;;0.20;;
16466;SDS011;8344;47.560;9.710;2023-06-10T01:05:43;0.30;;;0.30;;
16466;SDS011;8344;47.560;9.710;2023-06-10T01:08:20;0.35;;;0.35;;
16466;SDS011;8344;47.560;9.710;2023-06-10T01:11:13;0.20;;;0.20;;
16466;SDS011;8344;47.560;9.710;2023-06-10T01:13:49;0.20;;;0.20;;
16466;SDS011;8344;47.560;9.710;2023-06-10T01:16:16;0.20;;;0.20;;
16466;SDS011;8344;47.560;9.710;2023-06-10T01:18:43;0.20;;;0.20;;
16466;SDS011;8344;47.560;9.710;2023-06-10T01:21:08;0.30;;;0.30;;
16466;SDS011;8344;47.560;9.710;2023-06-10T01:23:38;0.32;;;0.32;;
16466;SDS011;8344;47.560;9.710;2023-06-10T01:26:04;0.30;;;0.30;;
16466;SDS011;8344;47.560;9.710;2023-06-10T01:28:36;0.22;;;0.22;;
16466;SDS011;8344;47.560;9.710;2023-06-10T01:31:10;0.28;;;0.28;;
16466;SDS011;8344;47.560;9.710;2023-06-10T01:33:43;0.30;;;0.30;;
16466;SDS011;8344;47.560;9.710;2023-06-10T01:36:11;0.20;;;0.20;;
16466;SDS011;8344;47.560;9.710;2023-06-10T01:38:41;0.22;;;0.22;;
16466;SDS011;8344;47.560;9.710;2023-06-10T01:41:09;0.30;;;0.30;;
16466;SDS011;8344;47.560;9.710;2023-06-10T01:43:37;0.35;;;0.35;;
16466;SDS011;8344;47.560;9.710;2023-06-10T01:46:03;0.30;;;0.30;;
16466;SDS011;8344;47.560;9.710;2023-06-10T01:48:28;0.35;;;0.35;;
16466;SDS011;8344;47.560;9.710;2023-06-10T01:50:53;0.30;;;0.30;;
16466;SDS011;8344;47.560;9.710;2023-06-10T01:53:20;0.30;;;0.30;;
16466;SDS011;8344;47.560;9.710;2023-06-10T01:55:46;0.30;;;0.30;;
16466;SDS011;8344;47.560;9.710;2023-06-10T01:58:12;0.20;;;0.20;;
16466;SDS011;8344;47.560;9.710;2023-06-10T02:00:37;0.32;;;0.32;;
16466;SDS011;8344;47.560;9.710;2023-06-10T02:03:02;0.30;;;0.30;;
16466;SDS011;8344;47.560;9.710;2023-06-10T02:05:28;0.40;;;0.40;;
16466;SDS011;8344;47.560;9.710;2023-06-10T02:07:53;0.30;;;0.30;;
16466;SDS011;8344;47.560;9.710;2023-06-10T02:10:18;0.30;;;0.30;;
16466;SDS011;8344;47.560;9.710;2023-06-10T02:12:44;0.30;;;0.30;;
16466;SDS011;8344;47.560;9.710;2023-06-10T02:15:09;0.25;;;0.25;;
16466;SDS011;8344;47.560;9.710;2023-06-10T02:17:34;0.30;;;0.30;;
16466;SDS011;8344;47.560;9.710;2023-06-10T02:20:00;0.20;;;0.20;;
16466;SDS011;8344;47.560;9.710;2023-06-10T02:22:31;0.40;;;0.40;;
16466;SDS011;8344;47.560;9.710;2023-06-10T02:24:56;0.30;;;0.30;;
16466;SDS011;8344;47.560;9.710;2023-06-10T02:27:22;0.30;;;0.30;;
16466;SDS011;8344;47.560;9.710;2023-06-10T02:29:47;0.20;;;0.20;;
16466;SDS011;8344;47.560;9.710;2023-06-10T02:32:12;0.28;;;0.28;;
16466;SDS011;8344;47.560;9.710;2023-06-10T02:34:37;0.30;;;0.30;;
16466;SDS011;8344;47.560;9.710;2023-06-10T02:37:03;0.30;;;0.30;;
16466;SDS011;8344;47.560;9.710;2023-06-10T02:39:28;0.30;;;0.30;;
16466;SDS011;8344;47.560;9.710;2023-06-10T02:41:54;0.20;;;0.20;;
16466;SDS011;8344;47.560;9.710;2023-06-10T02:44:19;0.30;;;0.30;;
16466;SDS011;8344;47.560;9.710;2023-06-10T02:46:45;0.30;;;0.30;;
16466;SDS011;8344;47.560;9.710;2023-06-10T02:49:11;0.38;;;0.38;;
16466;SDS011;8344;47.560;9.710;2023-06-10T02:51:36;0.45;;;0.45;;
16466;SDS011;8344;47.560;9.710;2023-06-10T02:54:01;0.25;;;0.25;;
16466;SDS011;8344;47.560;9.710;2023-06-10T02:56:27;0.30;;;0.30;;
16466;SDS011;8344;47.560;9.710;2023-06-10T02:58:52;0.30;;;0.30;;
16466;SDS011;8344;47.560;9.710;2023-06-10T03:01:18;0.40;;;0.40;;
16466;SDS011;8344;47.560;9.710;2023-06-10T03:03:44;0.30;;;0.30;;
16466;SDS011;8344;47.560;9.710;2023-06-10T03:06:12;0.22;;;0.22;;
16466;SDS011;8344;47.560;9.710;2023-06-10T03:08:39;0.30;;;0.30;;
16466;SDS011;8344;47.560;9.710;2023-06-10T03:11:05;0.30;;;0.30;;
16466;SDS011;8344;47.560;9.710;2023-06-10T03:13:30;0.20;;;0.20;;
16466;SDS011;8344;47.560;9.710;2023-06-10T03:15:56;0.30;;;0.30;;
16466;SDS011;8344;47.560;9.710;2023-06-10T03:18:21;0.28;;;0.28;;
16466;SDS011;8344;47.560;9.710;2023-06-10T03:20:48;0.43;;;0.43;;
16466;SDS011;8344;47.560;9.710;2023-06-10T03:23:13;0.30;;;0.30;;
16466;SDS011;8344;47.560;9.710;2023-06-10T03:25:38;0.20;;;0.20;;
16466;SDS011;8344;47.560;9.710;2023-06-10T03:28:03;0.20;;;0.20;;
16466;SDS011;8344;47.560;9.710;2023-06-10T03:30:29;0.22;;;0.22;;
16466;SDS011;8344;47.560;9.710;2023-06-10T03:32:54;0.20;;;0.20;;
16466;SDS011;8344;47.560;9.710;2023-06-10T03:35:19;0.30;;;0.30;;
16466;SDS011;8344;47.560;9.710;2023-06-10T03:37:45;0.30;;;0.30;;
16466;SDS011;8344;47.560;9.710;2023-06-10T03:40:11;0.22;;;0.22;;
16466;SDS011;8344;47.560;9.710;2023-06-10T03:42:36;0.32;;;0.32;;
16466;SDS011;8344;47.560;9.710;2023-06-10T03:45:02;0.30;;;0.30;;
16466;SDS011;8344;47.560;9.710;2023-06-10T03:47:32;0.30;;;0.30;;
16466;SDS011;8344;47.560;9.710;2023-06-10T03:49:58;0.20;;;0.20;;
16466;SDS011;8344;47.560;9.710;2023-06-10T03:52:24;0.32;;;0.32;;
16466;SDS011;8344;47.560;9.710;2023-06-10T03:54:49;0.28;;;0.28;;
16466;SDS011;8344;47.560;9.710;2023-06-10T03:57:14;0.30;;;0.30;;
16466;SDS011;8344;47.560;9.710;2023-06-10T03:59:39;0.30;;;0.30;;
16466;SDS011;8344;47.560;9.710;2023-06-10T04:02:05;0.30;;;0.30;;
16466;SDS011;8344;47.560;9.710;2023-06-10T04:04:31;0.28;;;0.28;;
16466;SDS011;8344;47.560;9.710;2023-06-10T04:06:57;0.20;;;0.20;;
16466;SDS011;8344;47.560;9.710;2023-06-10T04:09:22;0.20;;;0.20;;
16466;SDS011;8344;47.560;9.710;2023-06-10T04:11:47;0.32;;;0.32;;
16466;SDS011;8344;47.560;9.710;2023-06-10T04:14:13;0.20;;;0.20;;
16466;SDS011;8344;47.560;9.710;2023-06-10T04:16:38;0.30;;;0.30;;
16466;SDS011;8344;47.560;9.710;2023-06-10T04:19:03;0.30;;;0.30;;
16466;SDS011;8344;47.560;9.710;2023-06-10T04:21:29;0.28;;;0.28;;
16466;SDS011;8344;47.560;9.710;2023-06-10T04:23:55;0.25;;;0.25;;
16466;SDS011;8344;47.560;9.710;2023-06-10T04:26:20;0.30;;;0.30;;
16466;SDS011;8344;47.560;9.710;2023-06-10T04:28:45;0.30;;;0.30;;
16466;SDS011;8344;47.560;9.710;2023-06-10T04:31:10;0.20;;;0.20;;
16466;SDS011;8344;47.560;9.710;2023-06-10T04:33:36;0.20;;;0.20;;
16466;SDS011;8344;47.560;9.710;2023-06-10T04:36:02;0.30;;;0.30;;
16466;SDS011;8344;47.560;9.710;2023-06-10T04:38:27;0.30;;;0.30;;
16466;SDS011;8344;47.560;9.710;2023-06-10T04:40:53;0.22;;;0.22;;
16466;SDS011;8344;47.560;9.710;2023-06-10T04:43:18;0.38;;;0.38;;
16466;SDS011;8344;47.560;9.710;2023-06-10T04:45:43;0.30;;;0.30;;
16466;SDS011;8344;47.560;9.710;2023-06-10T04:48:12;0.20;;;0.20;;
16466;SDS011;8344;47.560;9.710;2023-06-10T04:50:37;0.20;;;0.20;;
16466;SDS011;8344;47.560;9.710;2023-06-10T04:53:03;0.30;;;0.30;;
16466;SDS011;8344;47.560;9.710;2023-06-10T04:55:29;0.30;;;0.30;;
16466;SDS011;8344;47.560;9.710;2023-06-10T04:57:54;0.30;;;0.30;;
16466;SDS011;8344;47.560;9.710;2023-06-10T05:00:20;0.30;;;0.30;;
16466;SDS011;8344;47.560;9.710;2023-06-10T05:02:45;0.20;;;0.20;;
16466;SDS011;8344;47.560;9.710;2023-06-10T05:05:14;0.30;;;0.30;;
16466;SDS011;8344;47.560;9.710;2023-06-10T05:07:40;0.20;;;0.20;;
16466;SDS011;8344;47.560;9.710;2023-06-10T05:10:06;0.20;;;0.20;;
16466;SDS011;8344;47.560;9.710;2023-06-10T05:12:31;0.20;;;0.20;;
16466;SDS011;8344;47.560;9.710;2023-06-10T05:14:57;0.20;;;0.20;;
16466;SDS011;8344;47.560;9.710;2023-06-10T05:17:22;0.20;;;0.20;;
16466;SDS011;8344;47.560;9.710;2023-06-10T05:19:48;0.20;;;0.20;;
16466;SDS011;8344;47.560;9.710;2023-06-10T05:22:13;0.20;;;0.20;;
16466;SDS011;8344;47.560;9.710;2023-06-10T05:24:39;0.20;;;0.20;;
16466;SDS011;8344;47.560;9.710;2023-06-10T05:27:05;0.20;;;0.20;;
16466;SDS011;8344;47.560;9.710;2023-06-10T05:29:31;0.20;;;0.20;;
16466;SDS011;8344;47.560;9.710;2023-06-10T05:31:57;0.17;;;0.17;;
16466;SDS011;8344;47.560;9.710;2023-06-10T05:34:25;0.10;;;0.10;;
16466;SDS011;8344;47.560;9.710;2023-06-10T05:36:50;0.10;;;0.10;;
16466;SDS011;8344;47.560;9.710;2023-06-10T05:39:16;0.20;;;0.20;;
16466;SDS011;8344;47.560;9.710;2023-06-10T05:41:41;0.20;;;0.20;;
16466;SDS011;8344;47.560;9.710;2023-06-10T05:44:06;0.20;;;0.20;;
16466;SDS011;8344;47.560;9.710;2023-06-10T05:46:31;0.20;;;0.20;;
16466;SDS011;8344;47.560;9.710;2023-06-10T05:48:57;0.10;;;0.10;;
16466;SDS011;8344;47.560;9.710;2023-06-10T05:51:22;0.28;;;0.28;;
16466;SDS011;8344;47.560;9.710;2023-06-10T05:53:47;0.13;;;0.13;;
16466;SDS011;8344;47.560;9.710;2023-06-10T05:56:13;0.10;;;0.10;;
16466;SDS011;8344;47.560;9.710;2023-06-10T05:58:39;0.10;;;0.10;;
16466;SDS011;8344;47.560;9.710;2023-06-10T06:01:04;0.10;;;0.10;;
16466;SDS011;8344;47.560;9.710;2023-06-10T06:03:30;0.10;;;0.10;;
16466;SDS011;8344;47.560;9.710;2023-06-10T06:05:55;0.10;;;0.10;;
16466;SDS011;8344;47.560;9.710;2023-06-10T06:08:20;0.10;;;0.10;;
16466;SDS011;8344;47.560;9.710;2023-06-10T06:10:46;0.00;;;0.00;;
16466;SDS011;8344;47.560;9.710;2023-06-10T06:13:12;0.00;;;0.00;;
16466;SDS011;8344;47.560;9.710;2023-06-10T06:15:38;0.00;;;0.00;;
16466;SDS011;8344;47.560;9.710;2023-06-10T06:18:03;0.03;;;0.03;;
16466;SDS011;8344;47.560;9.710;2023-06-10T06:20:28;0.00;;;0.00;;
16466;SDS011;8344;47.560;9.710;2023-06-10T06:22:54;0.00;;;0.00;;
16466;SDS011;8344;47.560;9.710;2023-06-10T06:25:21;0.00;;;0.00;;
16466;SDS011;8344;47.560;9.710;2023-06-10T06:27:48;0.00;;;0.00;;
16466;SDS011;8344;47.560;9.710;2023-06-10T06:30:13;0.00;;;0.00;;
16466;SDS011;8344;47.560;9.710;2023-06-10T06:32:38;0.00;;;0.00;;
16466;SDS011;8344;47.560;9.710;2023-06-10T06:35:04;0.00;;;0.00;;
16466;SDS011;8344;47.560;9.710;2023-06-10T06:37:32;0.00;;;0.00;;
16466;SDS011;8344;47.560;9.710;2023-06-10T06:39:58;0.00;;;0.00;;
16466;SDS011;8344;47.560;9.710;2023-06-10T06:42:23;0.00;;;0.00;;
16466;SDS011;8344;47.560;9.710;2023-06-10T06:44:48;0.10;;;0.10;;
16466;SDS011;8344;47.560;9.710;2023-06-10T06:47:14;0.10;;;0.10;;
16466;SDS011;8344;47.560;9.710;2023-06-10T06:49:39;0.00;;;0.00;;
16466;SDS011;8344;47.560;9.710;2023-06-10T06:52:04;0.00;;;0.00;;
16466;SDS011;8344;47.560;9.710;2023-06-10T06:54:30;0.03;;;0.03;;
16466;SDS011;8344;47.560;9.710;2023-06-10T06:56:56;0.08;;;0.08;;
16466;SDS011;8344;47.560;9.710;2023-06-10T06:59:22;0.10;;;0.10;;
16466;SDS011;8344;47.560;9.710;2023-06-10T07:01:47;0.10;;;0.10;;
16466;SDS011;8344;47.560;9.710;2023-06-10T07:04:14;0.10;;;0.10;;
16466;SDS011;8344;47.560;9.710;2023-06-10T07:06:40;0.10;;;0.10;;
16466;SDS011;8344;47.560;9.710;2023-06-10T07:09:05;0.10;;;0.10;;
16466;SDS011;8344;47.560;9.710;2023-06-10T07:11:31;0.10;;;0.10;;
16466;SDS011;8344;47.560;9.710;2023-06-10T07:13:56;0.10;;;0.10;;
16466;SDS011;8344;47.560;9.710;2023-06-10T07:16:22;0.10;;;0.10;;
16466;SDS011;8344;47.560;9.710;2023-06-10T07:18:47;0.10;;;0.10;;
16466;SDS011;8344;47.560;9.710;2023-06-10T07:21:12;0.20;;;0.20;;
16466;SDS011;8344;47.560;9.710;2023-06-10T07:23:41;0.10;;;0.10;;
16466;SDS011;8344;47.560;9.710;2023-06-10T07:26:06;0.10;;;0.10;;
16466;SDS011;8344;47.560;9.710;2023-06-10T07:28:32;0.10;;;0.10;;
16466;SDS011;8344;47.560;9.710;2023-06-10T07:30:58;0.10;;;0.10;;
16466;SDS011;8344;47.560;9.710;2023-06-10T07:33:23;0.20;;;0.20;;
16466;SDS011;8344;47.560;9.710;2023-06-10T07:35:48;0.13;;;0.13;;
16466;SDS011;8344;47.560;9.710;2023-06-10T07:38:13;0.20;;;0.20;;
16466;SDS011;8344;47.560;9.710;2023-06-10T07:40:39;0.20;;;0.20;;
16466;SDS011;8344;47.560;9.710;2023-06-10T07:43:04;0.10;;;0.10;;
16466;SDS011;8344;47.560;9.710;2023-06-10T07:45:29;0.10;;;0.10;;
16466;SDS011;8344;47.560;9.710;2023-06-10T07:47:55;0.10;;;0.10;;
16466;SDS011;8344;47.560;9.710;2023-06-10T07:50:20;0.20;;;0.20;;
16466;SDS011;8344;47.560;9.710;2023-06-10T07:52:46;0.10;;;0.10;;
16466;SDS011;8344;47.560;9.710;2023-06-10T07:55:11;0.20;;;0.20;;
16466;SDS011;8344;47.560;9.710;2023-06-10T07:57:36;0.20;;;0.20;;
16466;SDS011;8344;47.560;9.710;2023-06-10T08:00:04;0.15;;;0.15;;
16466;SDS011;8344;47.560;9.710;2023-06-10T08:02:31;0.20;;;0.20;;
16466;SDS011;8344;47.560;9.710;2023-06-10T08:04:56;0.20;;;0.20;;
16466;SDS011;8344;47.560;9.710;2023-06-10T08:07:21;0.10;;;0.10;;
16466;SDS011;8344;47.560;9.710;2023-06-10T08:09:47;0.10;;;0.10;;
16466;SDS011;8344;47.560;9.710;2023-06-10T08:12:12;0.20;;;0.20;;
16466;SDS011;8344;47.560;9.710;2023-06-10T08:14:37;0.20;;;0.20;;
16466;SDS011;8344;47.560;9.710;2023-06-10T08:17:03;0.13;;;0.13;;
16466;SDS011;8344;47.560;9.710;2023-06-10T08:19:30;0.20;;;0.20;;
16466;SDS011;8344;47.560;9.710;2023-06-10T08:21:56;0.20;;;0.20;;
16466;SDS011;8344;47.560;9.710;2023-06-10T08:24:21;0.20;;;0.20;;
16466;SDS011;8344;47.560;9.710;2023-06-10T08:26:46;0.20;;;0.20;;
16466;SDS011;8344;47.560;9.710;2023-06-10T08:29:12;0.20;;;0.20;;
16466;SDS011;8344;47.560;9.710;2023-06-10T08:31:37;0.10;;;0.10;;
16466;SDS011;8344;47.560;9.710;2023-06-10T08:34:06;0.10;;;0.10;;
16466;SDS011;8344;47.560;9.710;2023-06-10T08:36:31;0.13;;;0.13;;
16466;SDS011;8344;47.560;9.710;2023-06-10T08:38:56;0.10;;;0.10;;
16466;SDS011;8344;47.560;9.710;2023-06-10T08:41:22;0.10;;;0.10;;
16466;SDS011;8344;47.560;9.710;2023-06-10T08:43:59;0.20;;;0.20;;
16466;SDS011;8344;47.560;9.710;2023-06-10T08:46:30;0.10;;;0.10;;
16466;SDS011;8344;47.560;9.710;2023-06-10T08:48:57;0.20;;;0.20;;
16466;SDS011;8344;47.560;9.710;2023-06-10T08:51:25;0.10;;;0.10;;
16466;SDS011;8344;47.560;9.710;2023-06-10T08:53:53;0.20;;;0.20;;
16466;SDS011;8344;47.560;9.710;2023-06-10T08:56:24;0.10;;;0.10;;
16466;SDS011;8344;47.560;9.710;2023-06-10T08:58:50;0.10;;;0.10;;
16466;SDS011;8344;47.560;9.710;2023-06-10T09:01:16;0.20;;;0.20;;
16466;SDS011;8344;47.560;9.710;2023-06-10T09:03:43;0.20;;;0.20;;
16466;SDS011;8344;47.560;9.710;2023-06-10T09:06:08;0.17;;;0.17;;
16466;SDS011;8344;47.560;9.710;2023-06-10T09:08:34;0.20;;;0.20;;
16466;SDS011;8344;47.560;9.710;2023-06-10T09:11:00;0.20;;;0.20;;
16466;SDS011;8344;47.560;9.710;2023-06-10T09:13:25;0.10;;;0.10;;
16466;SDS011;8344;47.560;9.710;2023-06-10T09:15:51;0.20;;;0.20;;
16466;SDS011;8344;47.560;9.710;2023-06-10T09:18:16;0.20;;;0.20;;
16466;SDS011;8344;47.560;9.710;2023-06-10T09:20:42;0.10;;;0.10;;
16466;SDS011;8344;47.560;9.710;2023-06-10T09:23:08;0.20;;;0.20;;
16466;SDS011;8344;47.560;9.710;2023-06-10T09:25:34;0.20;;;0.20;;
16466;SDS011;8344;47.560;9.710;2023-06-10T09:28:01;0.10;;;0.10;;
16466;SDS011;8344;47.560;9.710;2023-06-10T09:30:31;0.10;;;0.10;;
16466;SDS011;8344;47.560;9.710;2023-06-10T09:32:59;0.10;;;0.10;;
16466;SDS011;8344;47.560;9.710;2023-06-10T09:35:26;0.15;;;0.15;;
16466;SDS011;8344;47.560;9.710;2023-06-10T09:37:53;0.15;;;0.15;;
16466;SDS011;8344;47.560;9.710;2023-06-10T09:40:19;0.10;;;0.10;;
16466;SDS011;8344;47.560;9.710;2023-06-10T09:42:45;0.10;;;0.10;;
16466;SDS011;8344;47.560;9.710;2023-06-10T09:45:10;0.10;;;0.10;;
16466;SDS011;8344;47.560;9.710;2023-06-10T09:47:35;0.17;;;0.17;;
16466;SDS011;8344;47.560;9.710;2023-06-10T09:50:01;0.10;;;0.10;;
16466;SDS011;8344;47.560;9.710;2023-06-10T09:52:27;0.10;;;0.10;;
16466;SDS011;8344;47.560;9.710;2023-06-10T09:54:55;0.20;;;0.20;;
16466;SDS011;8344;47.560;9.710;2023-06-10T09:57:25;0.10;;;0.10;;
16466;SDS011;8344;47.560;9.710;2023-06-10T09:59:53;0.10;;;0.10;;
16466;SDS011;8344;47.560;9.710;2023-06-10T10:02:19;0.10;;;0.10;;
16466;SDS011;8344;47.560;9.710;2023-06-10T10:04:44;0.17;;;0.17;;
16466;SDS011;8344;47.560;9.710;2023-06-10T10:07:10;0.20;;;0.20;;
16466;SDS011;8344;47.560;9.710;2023-06-10T10:09:36;0.10;;;0.10;;
16466;SDS011;8344;47.560;9.710;2023-06-10T10:12:02;0.10;;;0.10;;
16466;SDS011;8344;47.560;9.710;2023-06-10T10:14:37;0.20;;;0.20;;
16466;SDS011;8344;47.560;9.710;2023-06-10T10:17:04;0.10;;;0.10;;
16466;SDS011;8344;47.560;9.710;2023-06-10T10:19:32;0.17;;;0.17;;
16466;SDS011;8344;47.560;9.710;2023-06-10T10:22:09;0.20;;;0.20;;
16466;SDS011;8344;47.560;9.710;2023-06-10T10:24:36;0.10;;;0.10;;
16466;SDS011;8344;47.560;9.710;2023-06-10T10:27:08;0.10;;;0.10;;
16466;SDS011;8344;47.560;9.710;2023-06-10T10:29:38;0.10;;;0.10;;
16466;SDS011;8344;47.560;9.710;2023-06-10T10:32:04;0.10;;;0.10;;
16466;SDS011;8344;47.560;9.710;2023-06-10T10:37:07;0.13;;;0.13;;
16466;SDS011;8344;47.560;9.710;2023-06-10T10:39:33;0.10;;;0.10;;
16466;SDS011;8344;47.560;9.710;2023-06-10T10:41:59;0.20;;;0.20;;
16466;SDS011;8344;47.560;9.710;2023-06-10T10:44:24;0.10;;;0.10;;
16466;SDS011;8344;47.560;9.710;2023-06-10T10:46:50;0.10;;;0.10;;
16466;SDS011;8344;47.560;9.710;2023-06-10T10:49:16;0.10;;;0.10;;
16466;SDS011;8344;47.560;9.710;2023-06-10T10:51:58;0.10;;;0.10;;
16466;SDS011;8344;47.560;9.710;2023-06-10T10:54:28;0.10;;;0.10;;
16466;SDS011;8344;47.560;9.710;2023-06-10T10:59:45;0.10;;;0.10;;
16466;SDS011;8344;47.560;9.710;2023-06-10T11:02:45;0.10;;;0.10;;
16466;SDS011;8344;47.560;9.710;2023-06-10T11:05:13;0.10;;;0.10;;
16466;SDS011;8344;47.560;9.710;2023-06-10T11:07:40;0.10;;;0.10;;
16466;SDS011;8344;47.560;9.710;2023-06-10T11:10:09;0.20;;;0.20;;
16466;SDS011;8344;47.560;9.710;2023-06-10T11:12:49;0.10;;;0.10;;
16466;SDS011;8344;47.560;9.710;2023-06-10T11:15:23;0.20;;;0.20;;
16466;SDS011;8344;47.560;9.710;2023-06-10T11:31:19;0.10;;;0.10;;
16466;SDS011;8344;47.560;9.710;2023-06-10T11:33:46;0.10;;;0.10;;
16466;SDS011;8344;47.560;9.710;2023-06-10T11:36:12;0.20;;;0.20;;
16466;SDS011;8344;47.560;9.710;2023-06-10T11:38:38;0.10;;;0.10;;
16466;SDS011;8344;47.560;9.710;2023-06-10T11:41:03;0.10;;;0.10;;
16466;SDS011;8344;47.560;9.710;2023-06-10T11:43:29;0.10;;;0.10;;
16466;SDS011;8344;47.560;9.710;2023-06-10T11:45:55;0.10;;;0.10;;
16466;SDS011;8344;47.560;9.710;2023-06-10T11:48:23;0.10;;;0.10;;
16466;SDS011;8344;47.560;9.710;2023-06-10T11:50:48;0.10;;;0.10;;
16466;SDS011;8344;47.560;9.710;2023-06-10T11:53:13;0.13;;;0.13;;
16466;SDS011;8344;47.560;9.710;2023-06-10T11:55:42;0.10;;;0.10;;
16466;SDS011;8344;47.560;9.710;2023-06-10T11:58:12;0.10;;;0.10;;
16466;SDS011;8344;47.560;9.710;2023-06-10T12:00:47;0.10;;;0.10;;
16466;SDS011;8344;47.560;9.710;2023-06-10T12:03:14;0.10;;;0.10;;
16466;SDS011;8344;47.560;9.710;2023-06-10T12:05:39;0.10;;;0.10;;
16466;SDS011;8344;47.560;9.710;2023-06-10T12:08:08;0.10;;;0.10;;
16466;SDS011;8344;47.560;9.710;2023-06-10T12:10:41;0.20;;;0.20;;
16466;SDS011;8344;47.560;9.710;2023-06-10T12:13:08;0.10;;;0.10;;
16466;SDS011;8344;47.560;9.710;2023-06-10T12:15:34;0.10;;;0.10;;
16466;SDS011;8344;47.560;9.710;2023-06-10T12:17:59;0.10;;;0.10;;
16466;SDS011;8344;47.560;9.710;2023-06-10T12:20:26;0.10;;;0.10;;
16466;SDS011;8344;47.560;9.710;2023-06-10T12:22:53;0.10;;;0.10;;
16466;SDS011;8344;47.560;9.710;2023-06-10T12:25:23;0.10;;;0.10;;
16466;SDS011;8344;47.560;9.710;2023-06-10T12:27:51;0.10;;;0.10;;
16466;SDS011;8344;47.560;9.710;2023-06-10T12:30:18;0.10;;;0.10;;
16466;SDS011;8344;47.560;9.710;2023-06-10T12:32:47;0.10;;;0.10;;
16466;SDS011;8344;47.560;9.710;2023-06-10T12:35:13;0.10;;;0.10;;
16466;SDS011;8344;47.560;9.710;2023-06-10T12:37:42;0.10;;;0.10;;
16466;SDS011;8344;47.560;9.710;2023-06-10T12:40:08;0.10;;;0.10;;
16466;SDS011;8344;47.560;9.710;2023-06-10T12:42:35;0.10;;;0.10;;
16466;SDS011;8344;47.560;9.710;2023-06-10T12:45:01;0.10;;;0.10;;
16466;SDS011;8344;47.560;9.710;2023-06-10T12:47:30;0.00;;;0.00;;
16466;SDS011;8344;47.560;9.710;2023-06-10T12:50:00;0.10;;;0.10;;
16466;SDS011;8344;47.560;9.710;2023-06-10T12:52:25;0.10;;;0.10;;
16466;SDS011;8344;47.560;9.710;2023-06-10T12:54:52;0.10;;;0.10;;
16466;SDS011;8344;47.560;9.710;2023-06-10T12:57:19;0.20;;;0.20;;
16466;SDS011;8344;47.560;9.710;2023-06-10T12:59:44;0.00;;;0.00;;
16466;SDS011;8344;47.560;9.710;2023-06-10T13:02:15;0.10;;;0.10;;
16466;SDS011;8344;47.560;9.710;2023-06-10T13:04:40;0.10;;;0.10;;
16466;SDS011;8344;47.560;9.710;2023-06-10T13:07:07;0.00;;;0.00;;
16466;SDS011;8344;47.560;9.710;2023-06-10T13:09:32;0.10;;;0.10;;
16466;SDS011;8344;47.560;9.710;2023-06-10T13:11:58;0.10;;;0.10;;
16466;SDS011;8344;47.560;9.710;2023-06-10T13:14:24;0.20;;;0.20;;
16466;SDS011;8344;47.560;9.710;2023-06-10T13:16:50;0.10;;;0.10;;
16466;SDS011;8344;47.560;9.710;2023-06-10T13:19:15;0.10;;;0.10;;
16466;SDS011;8344;47.560;9.710;2023-06-10T13:21:41;0.20;;;0.20;;
16466;SDS011;8344;47.560;9.710;2023-06-10T13:24:06;0.10;;;0.10;;
16466;SDS011;8344;47.560;9.710;2023-06-10T13:26:32;0.00;;;0.00;;
16466;SDS011;8344;47.560;9.710;2023-06-10T13:28:57;0.10;;;0.10;;
16466;SDS011;8344;47.560;9.710;2023-06-10T13:31:22;0.10;;;0.10;;
16466;SDS011;8344;47.560;9.710;2023-06-10T13:33:48;0.10;;;0.10;;
16466;SDS011;8344;47.560;9.710;2023-06-10T13:36:13;0.10;;;0.10;;
16466;SDS011;8344;47.560;9.710;2023-06-10T13:38:38;0.13;;;0.13;;
16466;SDS011;8344;47.560;9.710;2023-06-10T13:41:03;0.10;;;0.10;;
16466;SDS011;8344;47.560;9.710;2023-06-10T13:43:29;0.00;;;0.00;;
16466;SDS011;8344;47.560;9.710;2023-06-10T13:45:54;0.10;;;0.10;;
16466;SDS011;8344;47.560;9.710;2023-06-10T13:48:20;0.10;;;0.10;;
16466;SDS011;8344;47.560;9.710;2023-06-10T13:50:45;0.10;;;0.10;;
16466;SDS011;8344;47.560;9.710;2023-06-10T13:53:11;0.00;;;0.00;;
16466;SDS011;8344;47.560;9.710;2023-06-10T13:55:36;0.03;;;0.03;;
16466;SDS011;8344;47.560;9.710;2023-06-10T13:58:02;0.08;;;0.08;;
16466;SDS011;8344;47.560;9.710;2023-06-10T14:00:27;0.10;;;0.10;;
16466;SDS011;8344;47.560;9.710;2023-06-10T14:02:53;0.10;;;0.10;;
16466;SDS011;8344;47.560;9.710;2023-06-10T14:05:18;0.00;;;0.00;;
16466;SDS011;8344;47.560;9.710;2023-06-10T14:07:43;0.10;;;0.10;;
16466;SDS011;8344;47.560;9.710;2023-06-10T14:10:09;0.05;;;0.05;;
16466;SDS011;8344;47.560;9.710;2023-06-10T14:12:35;0.10;;;0.10;;
16466;SDS011;8344;47.560;9.710;2023-06-10T14:15:00;0.10;;;0.10;;
16466;SDS011;8344;47.560;9.710;2023-06-10T14:17:26;0.10;;;0.10;;
16466;SDS011;8344;47.560;9.710;2023-06-10T14:19:51;0.10;;;0.10;;
16466;SDS011;8344;47.560;9.710;2023-06-10T14:22:17;0.10;;;0.10;;
16466;SDS011;8344;47.560;9.710;2023-06-10T14:24:42;0.10;;;0.10;;
16466;SDS011;8344;47.560;9.710;2023-06-10T14:27:07;0.10;;;0.10;;
16466;SDS011;8344;47.560;9.710;2023-06-10T14:29:32;0.10;;;0.10;;
16466;SDS011;8344;47.560;9.710;2023-06-10T14:31:58;0.10;;;0.10;;
16466;SDS011;8344;47.560;9.710;2023-06-10T14:34:24;0.10;;;0.10;;
16466;SDS011;8344;47.560;9.710;2023-06-10T14:36:53;0.10;;;0.10;;
16466;SDS011;8344;47.560;9.710;2023-06-10T14:39:19;0.10;;;0.10;;
16466;SDS011;8344;47.560;9.710;2023-06-10T14:41:44;0.10;;;0.10;;
16466;SDS011;8344;47.560;9.710;2023-06-10T14:44:10;0.15;;;0.15;;
16466;SDS011;8344;47.560;9.710;2023-06-10T14:46:35;0.10;;;0.10;;
16466;SDS011;8344;47.560;9.710;2023-06-10T14:49:00;0.10;;;0.10;;
16466;SDS011;8344;47.560;9.710;2023-06-10T14:51:27;0.10;;;0.10;;
16466;SDS011;8344;47.560;9.710;2023-06-10T14:53:52;0.10;;;0.10;;
16466;SDS011;8344;47.560;9.710;2023-06-10T14:56:17;0.10;;;0.10;;
16466;SDS011;8344;47.560;9.710;2023-06-10T14:58:43;0.10;;;0.10;;
16466;SDS011;8344;47.560;9.710;2023-06-10T15:01:08;0.08;;;0.08;;
16466;SDS011;8344;47.560;9.710;2023-06-10T15:03:33;0.00;;;0.00;;
16466;SDS011;8344;47.560;9.710;2023-06-10T15:05:59;0.10;;;0.10;;
16466;SDS011;8344;47.560;9.710;2023-06-10T15:08:25;0.10;;;0.10;;
16466;SDS011;8344;47.560;9.710;2023-06-10T15:10:52;0.10;;;0.10;;
16466;SDS011;8344;47.560;9.710;2023-06-10T15:13:18;0.10;;;0.10;;
16466;SDS011;8344;47.560;9.710;2023-06-10T15:15:43;0.08;;;0.08;;